createdAt,value
2019-06-25T00:00:20.990Z,6.30
2019-06-25T00:02:50.105Z,6.60
2019-06-25T00:05:19.296Z,5.43
2019-06-25T00:07:48.133Z,5.83
2019-06-25T00:10:17.240Z,7.13
2019-06-25T00:12:46.301Z,6.80
2019-06-25T00:15:15.183Z,7.60
2019-06-25T00:17:43.895Z,7.77
2019-06-25T00:20:13.484Z,7.03
2019-06-25T00:22:42.388Z,6.50
2019-06-25T00:25:11.403Z,7.10
2019-06-25T00:27:40.243Z,6.40
2019-06-25T00:30:09.982Z,7.13
2019-06-25T00:32:38.741Z,7.50
2019-06-25T00:35:07.905Z,8.13
2019-06-25T00:37:36.740Z,6.43
2019-06-25T00:40:06.429Z,7.13
2019-06-25T00:42:35.564Z,7.03
2019-06-25T00:45:05.503Z,6.60
2019-06-25T00:47:34.555Z,7.10
2019-06-25T00:50:03.713Z,7.23
2019-06-25T00:52:32.444Z,7.23
2019-06-25T00:55:01.558Z,7.70
2019-06-25T00:57:30.612Z,8.20
2019-06-25T01:00:12.355Z,8.47
2019-06-25T01:02:36.312Z,7.30
2019-06-25T01:05:05.640Z,6.60
2019-06-25T01:07:34.484Z,8.17
2019-06-25T01:10:04.007Z,7.00
2019-06-25T01:12:33.101Z,7.97
2019-06-25T01:15:02.152Z,8.40
2019-06-25T01:17:31.053Z,8.17
2019-06-25T01:19:59.805Z,8.70
2019-06-25T01:22:28.672Z,7.93
2019-06-25T01:24:57.414Z,7.77
2019-06-25T01:27:26.263Z,7.07
2019-06-25T01:29:55.064Z,8.10
2019-06-25T01:32:23.779Z,8.10
2019-06-25T01:34:52.575Z,7.53
2019-06-25T01:37:21.368Z,8.13
2019-06-25T01:39:50.123Z,7.87
2019-06-25T01:42:19.069Z,7.90
2019-06-25T01:44:47.914Z,7.67
2019-06-25T01:47:16.749Z,9.10
2019-06-25T01:49:45.839Z,7.07
2019-06-25T01:52:14.556Z,8.07
2019-06-25T01:54:43.575Z,7.67
2019-06-25T01:57:12.374Z,7.53
2019-06-25T01:59:41.855Z,7.97
2019-06-25T02:02:10.665Z,8.60
2019-06-25T02:04:39.764Z,7.80
2019-06-25T02:07:08.498Z,9.13
2019-06-25T02:09:37.338Z,8.20
2019-06-25T02:12:06.240Z,8.17
2019-06-25T02:14:35.045Z,7.73
2019-06-25T02:17:04.194Z,8.70
2019-06-25T02:19:33.191Z,7.70
2019-06-25T02:22:02.236Z,9.03
2019-06-25T02:24:30.984Z,8.60
2019-06-25T02:26:59.800Z,8.67
2019-06-25T02:29:28.704Z,8.27
2019-06-25T02:31:57.811Z,9.43
2019-06-25T02:34:27.393Z,9.33
2019-06-25T02:36:56.225Z,7.87
2019-06-25T02:39:24.991Z,8.57
2019-06-25T02:41:53.797Z,9.37
2019-06-25T02:44:22.642Z,8.53
2019-06-25T02:46:51.444Z,7.63
2019-06-25T02:49:20.184Z,9.47
2019-06-25T02:51:49.267Z,8.53
2019-06-25T02:54:17.999Z,8.70
2019-06-25T02:56:47.030Z,7.10
2019-06-25T02:59:16.102Z,9.20
2019-06-25T03:01:44.878Z,8.47
2019-06-25T03:04:13.729Z,9.07
2019-06-25T03:06:42.549Z,8.70
2019-06-25T03:09:11.390Z,8.53
2019-06-25T03:11:40.248Z,8.67
2019-06-25T03:14:09.344Z,9.23
2019-06-25T03:16:38.099Z,9.90
2019-06-25T03:19:06.934Z,9.70
2019-06-25T03:21:35.841Z,8.93
2019-06-25T03:24:04.750Z,8.47
2019-06-25T03:26:33.628Z,10.17
2019-06-25T03:29:02.455Z,9.77
2019-06-25T03:32:01.613Z,9.40
2019-06-25T03:34:02.129Z,10.90
2019-06-25T03:36:30.943Z,8.73
2019-06-25T03:39:00.005Z,10.70
2019-06-25T03:41:28.831Z,9.83
2019-06-25T03:43:57.846Z,9.47
2019-06-25T03:46:26.623Z,9.90
2019-06-25T03:48:55.721Z,10.30
2019-06-25T03:51:24.776Z,10.23
2019-06-25T03:53:53.584Z,9.60
2019-06-25T03:56:22.364Z,10.17
2019-06-25T03:58:51.436Z,9.43
2019-06-25T04:01:20.535Z,9.50
2019-06-25T04:03:49.350Z,9.93
2019-06-25T04:06:18.266Z,10.40
2019-06-25T04:08:47.075Z,8.60
2019-06-25T04:11:15.929Z,9.23
2019-06-25T04:13:44.782Z,9.27
2019-06-25T04:16:13.855Z,8.60
2019-06-25T04:18:45.389Z,8.97
2019-06-25T04:21:13.410Z,9.37
2019-06-25T04:23:42.297Z,7.83
2019-06-25T04:26:11.339Z,9.27
2019-06-25T04:28:40.928Z,9.70
2019-06-25T04:31:09.721Z,7.90
2019-06-25T04:33:38.595Z,8.13
2019-06-25T04:36:07.652Z,7.87
2019-06-25T04:38:36.683Z,7.47
2019-06-25T04:41:05.756Z,8.03
2019-06-25T04:43:34.659Z,8.00
2019-06-25T04:46:03.513Z,7.60
2019-06-25T04:48:32.331Z,8.20
2019-06-25T04:51:01.045Z,7.30
2019-06-25T04:53:30.148Z,7.93
2019-06-25T04:56:00.488Z,7.30
2019-06-25T04:58:29.439Z,8.47
2019-06-25T05:00:58.438Z,8.80
2019-06-25T05:03:27.487Z,7.60
2019-06-25T05:05:56.315Z,7.63
2019-06-25T05:08:25.033Z,7.17
2019-06-25T05:10:53.768Z,7.87
2019-06-25T05:13:22.600Z,7.60
2019-06-25T05:15:51.835Z,7.23
2019-06-25T05:18:21.074Z,7.00
2019-06-25T05:20:50.125Z,7.00
2019-06-25T05:23:19.761Z,8.10
2019-06-25T05:25:48.632Z,7.20
2019-06-25T05:28:17.409Z,6.93
2019-06-25T05:30:46.276Z,7.17
2019-06-25T05:33:15.131Z,6.53
2019-06-25T05:35:48.057Z,7.30
2019-06-25T05:38:16.848Z,6.70
2019-06-25T05:40:45.700Z,7.33
2019-06-25T05:43:14.406Z,7.00
2019-06-25T05:45:43.442Z,6.77
2019-06-25T05:48:12.212Z,6.70
2019-06-25T05:50:41.021Z,6.93
2019-06-25T05:53:09.771Z,6.53
2019-06-25T05:55:38.831Z,6.77
2019-06-25T05:58:07.584Z,5.70
2019-06-25T06:00:36.411Z,7.27
2019-06-25T06:03:19.390Z,7.20
2019-06-25T06:05:36.378Z,6.67
2019-06-25T06:08:05.210Z,7.83
2019-06-25T06:10:34.010Z,7.80
2019-06-25T06:13:03.072Z,6.23
2019-06-25T06:15:31.844Z,7.27
2019-06-25T06:18:35.930Z,7.20
2019-06-25T06:21:05.397Z,7.43
2019-06-25T06:23:34.393Z,6.97
2019-06-25T06:26:03.275Z,7.63
2019-06-25T06:28:32.428Z,6.90
2019-06-25T06:31:15.697Z,6.47
2019-06-25T06:33:36.482Z,7.27
2019-06-25T06:36:02.608Z,6.77
2019-06-25T06:38:31.772Z,6.20
2019-06-25T06:41:03.260Z,6.37
2019-06-25T06:43:31.112Z,6.90
2019-06-25T06:45:59.874Z,6.07
2019-06-25T06:48:28.811Z,6.87
2019-06-25T06:50:57.897Z,5.83
2019-06-25T06:53:27.022Z,6.90
2019-06-25T06:55:55.906Z,7.07
2019-06-25T06:58:27.748Z,5.80
2019-06-25T07:00:56.775Z,5.53
2019-06-25T07:03:25.697Z,6.63
2019-06-25T07:05:54.577Z,5.70
2019-06-25T07:08:24.389Z,5.27
2019-06-25T07:10:53.367Z,5.80
2019-06-25T07:13:22.365Z,5.80
2019-06-25T07:15:51.581Z,5.97
2019-06-25T07:18:20.609Z,5.83
2019-06-25T07:20:49.365Z,8.03
2019-06-25T07:23:18.631Z,5.27
2019-06-25T07:25:47.580Z,5.70
2019-06-25T07:28:16.339Z,5.43
2019-06-25T07:30:45.148Z,5.93
2019-06-25T07:33:14.173Z,5.53
2019-06-25T07:35:43.252Z,5.70
2019-06-25T07:38:12.408Z,7.17
2019-06-25T07:40:41.243Z,4.83
2019-06-25T07:43:10.325Z,5.70
2019-06-25T07:45:39.207Z,5.10
2019-06-25T07:48:08.075Z,4.73
2019-06-25T07:50:36.821Z,5.30
2019-06-25T07:53:05.755Z,5.07
2019-06-25T07:55:34.500Z,4.90
2019-06-25T07:58:03.390Z,5.37
2019-06-25T08:00:32.369Z,5.80
2019-06-25T08:03:01.255Z,7.10
2019-06-25T08:05:30.067Z,5.10
2019-06-25T08:07:59.398Z,4.87
2019-06-25T08:10:28.424Z,5.20
2019-06-25T08:12:57.195Z,4.90
2019-06-25T08:15:26.011Z,4.90
2019-06-25T08:17:54.820Z,4.93
2019-06-25T08:20:23.992Z,4.30
2019-06-25T08:22:52.902Z,4.17
2019-06-25T08:25:21.943Z,4.60
2019-06-25T08:27:50.724Z,5.40
2019-06-25T08:30:19.641Z,4.50
2019-06-25T08:32:48.648Z,4.40
2019-06-25T08:35:17.625Z,4.10
2019-06-25T08:37:46.438Z,7.17
2019-06-25T08:40:20.022Z,4.57
2019-06-25T08:42:46.147Z,4.40
2019-06-25T08:45:20.431Z,4.50
2019-06-25T08:47:49.563Z,4.47
2019-06-25T08:50:18.831Z,4.30
2019-06-25T08:52:57.392Z,4.17
2019-06-25T08:55:18.801Z,4.80
2019-06-25T08:57:47.655Z,3.87
2019-06-25T09:00:17.179Z,5.47
2019-06-25T09:02:46.091Z,5.60
2019-06-25T09:05:15.069Z,4.93
2019-06-25T09:07:43.910Z,4.70
2019-06-25T09:10:13.810Z,6.30
2019-06-25T09:12:42.813Z,4.43
2019-06-25T09:15:12.384Z,4.63
2019-06-25T09:17:41.196Z,4.83
2019-06-25T09:20:10.552Z,4.67
2019-06-25T09:22:39.509Z,4.73
2019-06-25T09:25:08.835Z,4.60
2019-06-25T09:27:38.282Z,4.30
2019-06-25T09:30:09.226Z,4.10
2019-06-25T09:32:38.117Z,4.57
2019-06-25T09:35:15.192Z,4.73
2019-06-25T09:37:38.809Z,4.83
2019-06-25T09:40:06.441Z,5.10
2019-06-25T09:42:34.087Z,5.13
2019-06-25T09:45:01.614Z,4.57
2019-06-25T09:47:32.518Z,4.17
2019-06-25T09:50:01.475Z,11.33
2019-06-25T09:52:30.876Z,4.10
2019-06-25T09:54:59.736Z,4.00
2019-06-25T09:57:28.601Z,4.53
2019-06-25T09:59:57.537Z,3.10
2019-06-25T10:02:26.376Z,3.30
2019-06-25T10:04:55.449Z,3.50
2019-06-25T10:07:24.391Z,3.93
2019-06-25T10:09:54.312Z,3.97
2019-06-25T10:12:23.615Z,4.00
2019-06-25T10:14:52.446Z,3.90
2019-06-25T10:17:21.199Z,3.40
2019-06-25T10:19:49.987Z,4.00
2019-06-25T10:22:18.752Z,3.80
2019-06-25T10:24:47.581Z,4.93
2019-06-25T10:27:16.390Z,3.40
2019-06-25T10:29:45.219Z,3.43
2019-06-25T10:32:14.044Z,3.83
2019-06-25T10:34:43.153Z,3.37
2019-06-25T10:37:11.976Z,4.00
2019-06-25T10:39:40.950Z,3.70
2019-06-25T10:42:09.840Z,5.23
2019-06-25T10:44:38.675Z,5.87
2019-06-25T10:47:07.470Z,4.57
2019-06-25T10:49:36.300Z,4.00
2019-06-25T10:52:05.678Z,4.17
2019-06-25T10:54:34.863Z,4.00
2019-06-25T10:57:03.668Z,4.83
2019-06-25T10:59:32.492Z,4.23
2019-06-25T11:02:01.299Z,6.90
2019-06-25T11:04:30.014Z,4.60
2019-06-25T11:07:04.700Z,4.90
2019-06-25T11:09:29.495Z,4.47
2019-06-25T11:11:58.308Z,5.00
2019-06-25T11:14:27.124Z,5.60
2019-06-25T11:16:55.941Z,4.00
2019-06-25T11:19:24.719Z,3.70
2019-06-25T11:21:53.447Z,4.40
2019-06-25T11:24:22.210Z,4.80
2019-06-25T11:26:51.313Z,4.47
2019-06-25T11:29:20.139Z,5.73
2019-06-25T11:31:49.264Z,4.33
2019-06-25T11:34:18.528Z,4.27
2019-06-25T11:36:47.817Z,4.40
2019-06-25T11:39:16.604Z,4.20
2019-06-25T11:41:45.342Z,5.33
2019-06-25T11:44:14.132Z,4.17
2019-06-25T11:46:43.187Z,4.10
2019-06-25T11:49:11.996Z,5.40
2019-06-25T11:51:40.781Z,3.97
2019-06-25T11:54:09.828Z,4.50
2019-06-25T11:56:38.916Z,4.03
2019-06-25T11:59:07.633Z,4.27
2019-06-25T12:01:36.392Z,3.97
2019-06-25T12:04:05.225Z,5.50
2019-06-25T12:06:52.355Z,4.70
2019-06-25T12:09:06.954Z,4.77
2019-06-25T12:11:35.789Z,4.73
2019-06-25T12:14:04.681Z,4.10
2019-06-25T12:16:33.786Z,5.07
2019-06-25T12:19:02.908Z,4.70
2019-06-25T12:21:31.680Z,5.03
2019-06-25T12:24:00.447Z,4.50
2019-06-25T12:26:29.695Z,6.23
2019-06-25T12:28:58.467Z,4.03
2019-06-25T12:31:27.324Z,4.40
2019-06-25T12:33:56.120Z,4.00
2019-06-25T12:36:25.127Z,4.30
2019-06-25T12:38:53.838Z,4.70
2019-06-25T12:41:22.929Z,4.10
2019-06-25T12:43:51.832Z,4.50
2019-06-25T12:46:20.570Z,4.33
2019-06-25T12:48:49.614Z,3.83
2019-06-25T12:51:18.728Z,3.93
2019-06-25T12:53:47.574Z,4.93
2019-06-25T12:56:16.449Z,4.10
2019-06-25T12:58:45.495Z,4.27
2019-06-25T13:01:14.587Z,4.53
2019-06-25T13:03:43.405Z,4.23
2019-06-25T13:06:12.446Z,4.97
2019-06-25T13:08:41.280Z,4.60
2019-06-25T13:11:10.150Z,4.33
2019-06-25T13:13:38.939Z,4.23
2019-06-25T13:16:07.736Z,5.67
2019-06-25T13:18:36.550Z,4.70
2019-06-25T13:21:05.456Z,4.83
2019-06-25T13:23:34.257Z,5.07
2019-06-25T13:26:03.048Z,4.33
2019-06-25T13:28:31.823Z,4.10
2019-06-25T13:31:00.527Z,3.80
2019-06-25T13:33:29.649Z,4.30
2019-06-25T13:35:58.432Z,4.30
2019-06-25T13:38:27.146Z,4.47
2019-06-25T13:40:56.135Z,8.93
2019-06-25T13:43:24.990Z,5.97
2019-06-25T13:45:53.909Z,4.50
2019-06-25T13:48:22.700Z,4.50
2019-06-25T13:50:51.488Z,6.13
2019-06-25T13:53:20.315Z,4.90
2019-06-25T13:55:49.152Z,5.50
2019-06-25T13:58:17.948Z,5.20
2019-06-25T14:00:46.971Z,4.60
2019-06-25T14:03:15.797Z,5.07
2019-06-25T14:05:44.599Z,4.77
2019-06-25T14:08:13.857Z,3.87
2019-06-25T14:10:42.822Z,4.33
2019-06-25T14:13:14.668Z,4.20
2019-06-25T14:15:42.320Z,4.70
2019-06-25T14:18:11.086Z,6.60
2019-06-25T14:20:39.874Z,4.53
2019-06-25T14:23:09.127Z,4.23
2019-06-25T14:25:38.221Z,4.73
2019-06-25T14:28:07.059Z,4.63
2019-06-25T14:30:35.856Z,5.03
2019-06-25T14:33:04.671Z,4.83
2019-06-25T14:35:33.450Z,5.37
2019-06-25T14:38:15.386Z,8.27
2019-06-25T14:40:33.305Z,5.07
2019-06-25T14:43:02.095Z,5.33
2019-06-25T14:45:31.053Z,5.97
2019-06-25T14:47:59.784Z,6.07
2019-06-25T14:50:28.842Z,5.90
2019-06-25T14:52:57.684Z,6.27
2019-06-25T14:55:26.461Z,5.20
2019-06-25T14:57:55.261Z,6.20
2019-06-25T15:00:24.148Z,5.73
2019-06-25T15:02:53.196Z,7.70
2019-06-25T15:05:22.021Z,5.60
2019-06-25T15:07:50.878Z,6.57
2019-06-25T15:10:20.132Z,6.60
2019-06-25T15:12:48.865Z,6.37
2019-06-25T15:15:31.812Z,5.93
2019-06-25T15:17:48.452Z,6.40
2019-06-25T15:20:17.665Z,6.60
2019-06-25T15:22:46.625Z,6.30
2019-06-25T15:25:16.901Z,5.83
2019-06-25T15:27:45.644Z,6.30
2019-06-25T15:30:14.891Z,7.37
2019-06-25T15:32:44.039Z,7.30
2019-06-25T15:35:13.309Z,6.80
2019-06-25T15:37:42.276Z,7.07
2019-06-25T15:40:11.019Z,7.80
2019-06-25T15:42:39.773Z,6.13
2019-06-25T15:45:08.624Z,6.57
2019-06-25T15:47:37.338Z,6.30
2019-06-25T15:50:06.825Z,6.90
2019-06-25T15:52:35.685Z,7.40
2019-06-25T15:55:04.924Z,7.07
2019-06-25T15:57:33.660Z,6.90
2019-06-25T16:00:02.418Z,8.00
2019-06-25T16:02:31.247Z,7.47
2019-06-25T16:05:00.112Z,6.83
2019-06-25T16:07:28.899Z,7.50
2019-06-25T16:09:57.629Z,7.73
2019-06-25T16:12:26.348Z,7.60
2019-06-25T16:14:55.063Z,6.77
2019-06-25T16:17:23.796Z,8.27
2019-06-25T16:19:52.800Z,8.23
2019-06-25T16:22:21.843Z,7.47
2019-06-25T16:24:50.705Z,8.27
2019-06-25T16:27:19.556Z,7.90
2019-06-25T16:29:48.418Z,7.87
2019-06-25T16:32:17.143Z,8.10
2019-06-25T16:34:45.846Z,8.20
2019-06-25T16:37:14.833Z,8.10
2019-06-25T16:39:43.667Z,8.80
2019-06-25T16:42:12.520Z,8.10
2019-06-25T16:44:41.616Z,9.40
2019-06-25T16:47:10.935Z,8.53
2019-06-25T16:49:39.766Z,8.40
2019-06-25T16:52:08.516Z,8.83
2019-06-25T16:54:37.310Z,10.43
2019-06-25T16:57:06.040Z,8.73
2019-06-25T16:59:34.763Z,8.70
2019-06-25T17:02:03.513Z,8.47
2019-06-25T17:04:32.618Z,8.40
2019-06-25T17:07:01.582Z,9.10
2019-06-25T17:09:35.194Z,9.20
2019-06-25T17:12:00.780Z,9.70
2019-06-25T17:14:29.608Z,8.97
2019-06-25T17:16:58.322Z,9.87
2019-06-25T17:19:27.051Z,8.90
2019-06-25T17:21:55.834Z,10.17
2019-06-25T17:24:24.580Z,9.37
2019-06-25T17:26:53.814Z,10.20
2019-06-25T17:29:22.604Z,9.90
2019-06-25T17:31:51.311Z,9.30
2019-06-25T17:34:22.716Z,9.83
2019-06-25T17:36:51.466Z,9.80
2019-06-25T17:39:20.495Z,10.03
2019-06-25T17:41:49.344Z,10.37
2019-06-25T17:44:18.154Z,9.60
2019-06-25T17:46:46.880Z,9.50
2019-06-25T17:49:15.607Z,10.03
2019-06-25T17:51:44.471Z,10.63
2019-06-25T17:54:13.632Z,10.23
2019-06-25T17:56:42.598Z,9.30
2019-06-25T17:59:11.669Z,10.13
2019-06-25T18:01:40.995Z,9.80
2019-06-25T18:04:10.235Z,10.30
2019-06-25T18:06:39.100Z,9.50
2019-06-25T18:09:09.397Z,11.00
2019-06-25T18:11:38.386Z,9.23
2019-06-25T18:14:07.306Z,11.20
2019-06-25T18:16:36.271Z,10.83
2019-06-25T18:19:05.419Z,10.63
2019-06-25T18:21:34.211Z,11.30
2019-06-25T18:24:02.981Z,9.93
2019-06-25T18:26:31.770Z,10.70
2019-06-25T18:29:00.814Z,9.70
2019-06-25T18:31:29.631Z,10.17
2019-06-25T18:33:58.679Z,11.40
2019-06-25T18:36:27.476Z,9.60
2019-06-25T18:38:56.352Z,10.37
2019-06-25T18:41:25.350Z,10.93
2019-06-25T18:43:54.067Z,10.60
2019-06-25T18:46:23.115Z,9.93
2019-06-25T18:48:52.391Z,10.67
2019-06-25T18:51:21.292Z,10.87
2019-06-25T18:53:50.021Z,10.10
2019-06-25T18:56:19.144Z,10.17
2019-06-25T18:58:47.897Z,11.83
2019-06-25T19:01:16.647Z,10.97
2019-06-25T19:03:45.706Z,11.30
2019-06-25T19:06:14.489Z,10.80
2019-06-25T19:08:46.117Z,10.40
2019-06-25T19:11:15.043Z,9.93
2019-06-25T19:13:43.983Z,10.10
2019-06-25T19:16:12.828Z,10.77
2019-06-25T19:18:41.928Z,10.93
2019-06-25T19:21:10.949Z,11.30
2019-06-25T19:23:39.690Z,10.50
2019-06-25T19:26:08.453Z,10.57
2019-06-25T19:28:37.522Z,10.53
2019-06-25T19:31:06.423Z,10.40
2019-06-25T19:33:35.160Z,12.20
2019-06-25T19:36:05.787Z,10.63
2019-06-25T19:38:34.697Z,10.80
2019-06-25T19:41:03.427Z,12.07
2019-06-25T19:43:32.297Z,11.40
2019-06-25T19:46:01.226Z,10.73
2019-06-25T19:48:30.284Z,10.23
2019-06-25T19:50:59.334Z,11.60
2019-06-25T19:53:28.172Z,10.53
2019-06-25T19:55:56.956Z,11.23
2019-06-25T19:58:25.688Z,11.77
2019-06-25T20:00:54.795Z,11.70
2019-06-25T20:03:23.524Z,11.10
2019-06-25T20:05:52.316Z,13.03
2019-06-25T20:08:21.329Z,10.80
2019-06-25T20:10:52.519Z,11.57
2019-06-25T20:13:21.323Z,12.17
2019-06-25T20:15:50.123Z,12.40
2019-06-25T20:18:19.393Z,11.03
2019-06-25T20:20:48.391Z,11.30
2019-06-25T20:23:17.153Z,11.30
2019-06-25T20:25:45.979Z,11.37
2019-06-25T20:28:15.487Z,11.80
2019-06-25T20:30:44.314Z,11.17
2019-06-25T20:33:13.661Z,11.00
2019-06-25T20:35:42.535Z,10.20
2019-06-25T20:38:11.397Z,11.13
2019-06-25T20:40:40.225Z,11.17
2019-06-25T20:43:09.296Z,10.70
2019-06-25T20:45:38.189Z,11.10
2019-06-25T20:48:07.128Z,11.63
2019-06-25T20:50:36.155Z,11.27
2019-06-25T20:53:04.996Z,12.27
2019-06-25T20:55:34.007Z,11.53
2019-06-25T20:58:03.538Z,12.60
2019-06-25T21:00:32.733Z,11.87
2019-06-25T21:03:01.643Z,12.30
2019-06-25T21:05:30.449Z,11.63
2019-06-25T21:07:59.284Z,11.70
2019-06-25T21:10:34.750Z,12.00
2019-06-25T21:13:03.866Z,12.03
2019-06-25T21:15:32.663Z,12.70
2019-06-25T21:18:01.740Z,12.63
2019-06-25T21:20:30.467Z,12.70
2019-06-25T21:23:00.191Z,12.47
2019-06-25T21:25:28.924Z,12.40
2019-06-25T21:27:57.894Z,12.47
2019-06-25T21:30:27.032Z,13.20
2019-06-25T21:32:55.844Z,12.07
2019-06-25T21:35:24.590Z,11.70
2019-06-25T21:37:53.653Z,12.97
2019-06-25T21:40:22.848Z,12.90
2019-06-25T21:42:51.823Z,12.60
2019-06-25T21:45:20.668Z,11.17
2019-06-25T21:47:49.404Z,11.70
2019-06-25T21:50:18.377Z,11.87
2019-06-25T21:52:47.596Z,12.23
2019-06-25T21:55:17.733Z,11.63
2019-06-25T21:57:46.672Z,12.23
2019-06-25T22:00:17.123Z,12.80
2019-06-25T22:02:47.794Z,11.90
2019-06-25T22:05:16.820Z,12.10
2019-06-25T22:07:45.866Z,12.27
2019-06-25T22:10:15.056Z,11.90
2019-06-25T22:12:44.089Z,11.83
2019-06-25T22:15:13.529Z,12.63
2019-06-25T22:17:42.679Z,12.07
2019-06-25T22:20:13.188Z,11.40
2019-06-25T22:22:42.420Z,11.53
2019-06-25T22:25:11.477Z,11.20
2019-06-25T22:27:40.621Z,12.07
2019-06-25T22:30:09.816Z,11.87
2019-06-25T22:32:38.739Z,11.20
2019-06-25T22:35:07.823Z,11.63
2019-06-25T22:37:36.619Z,11.80
2019-06-25T22:40:05.782Z,10.83
2019-06-25T22:42:37.658Z,11.87
2019-06-25T22:45:05.643Z,11.67
2019-06-25T22:47:34.383Z,12.73
2019-06-25T22:50:03.330Z,12.33
2019-06-25T22:52:32.450Z,12.93
2019-06-25T22:55:01.397Z,13.10
2019-06-25T22:57:30.151Z,10.80
2019-06-25T22:59:59.022Z,12.40
2019-06-25T23:02:28.596Z,11.70
2019-06-25T23:04:57.425Z,12.17
2019-06-25T23:07:26.381Z,12.40
2019-06-25T23:09:55.159Z,13.00
2019-06-25T23:12:24.040Z,12.63
2019-06-25T23:14:53.213Z,11.70
2019-06-25T23:17:22.000Z,11.80
2019-06-25T23:19:51.005Z,12.30
2019-06-25T23:22:19.866Z,11.90
2019-06-25T23:24:48.726Z,13.37
2019-06-25T23:27:17.523Z,13.00
2019-06-25T23:29:46.274Z,13.30
2019-06-25T23:32:15.127Z,12.50
2019-06-25T23:34:44.016Z,12.90
2019-06-25T23:37:12.800Z,11.40
2019-06-25T23:39:41.615Z,13.00
2019-06-25T23:42:10.393Z,12.33
2019-06-25T23:44:39.195Z,13.07
2019-06-25T23:47:07.956Z,15.03
2019-06-25T23:49:36.780Z,12.63
2019-06-25T23:52:05.575Z,13.80
2019-06-25T23:54:34.596Z,13.33
2019-06-25T23:57:03.434Z,11.83
2019-06-25T23:59:32.167Z,14.60
